Elm River, Illinois
Current Conditions -  °F | °C
As of 4:35 AM on Thursday 27 Nov 2014 (Local Time) from KFWC Reporting Station
Haze Haze  
Wind Chill: 21°   Ceiling: 1300
Heat Index: 29°   Visibility: 5mi
Dew Point: 26°   Wind: 8mph
Humidity: 88%   Direction: 340°NNW
Pressure: 30.3"   Gusts: NA
Location:  38.4399°N, 88.4246°W
Report Text: KFWC 271035Z AUTO 34007KT 5SM BR BKN013 OVC055 M02/M03 A3030 RMK AO1 T10171035
Loading
Personal Weather Stations






























Interactive Weather Map New forecast layout! Learn more

10-Day Weather Forecast

Advertisements
Track Severe Weather on mobile